createdAt,value
2023-01-18T00:03:38.874Z,12.40
2023-01-18T00:22:18.463Z,12.80
2023-01-18T00:40:56.483Z,9.40
2023-01-18T00:59:35.982Z,7.50
2023-01-18T01:18:14.394Z,7.80
2023-01-18T01:36:53.877Z,9.80
2023-01-18T01:55:33.257Z,8.80
2023-01-18T02:14:13.602Z,8.40
2023-01-18T02:32:54.400Z,14.40
2023-01-18T02:51:31.669Z,11.20
2023-01-18T03:10:09.954Z,11.20
2023-01-18T03:28:49.319Z,11.50
2023-01-18T03:47:29.570Z,10.80
2023-01-18T04:06:08.927Z,9.30
2023-01-18T04:24:49.364Z,14.40
2023-01-18T04:43:32.887Z,12.40
2023-01-18T05:02:09.078Z,17.50
2023-01-18T05:20:48.881Z,15.30
2023-01-18T05:39:27.551Z,17.40
2023-01-18T05:58:06.370Z,13.10
2023-01-18T06:16:46.918Z,15.50
2023-01-18T06:35:24.109Z,17.00
2023-01-18T06:54:04.560Z,18.40
2023-01-18T07:12:42.288Z,15.80
2023-01-18T07:31:23.137Z,14.50
2023-01-18T07:50:04.131Z,17.70
2023-01-18T08:08:46.090Z,16.80
2023-01-18T08:27:27.456Z,18.30
2023-01-18T08:46:09.292Z,19.40
2023-01-18T09:04:49.723Z,18.00
2023-01-18T09:23:31.128Z,16.60
2023-01-18T09:42:13.741Z,17.00
2023-01-18T10:00:52.134Z,14.80
2023-01-18T10:19:32.029Z,12.60
2023-01-18T10:38:12.132Z,14.60
2023-01-18T11:15:34.110Z,14.40
2023-01-18T11:52:51.073Z,11.40
2023-01-18T12:11:30.357Z,10.30
2023-01-18T12:30:06.007Z,10.70
2023-01-18T13:07:21.036Z,10.00
2023-01-18T13:25:58.827Z,12.40
2023-01-18T13:44:34.652Z,7.30
2023-01-18T14:03:17.547Z,7.00
2023-01-18T14:40:31.261Z,5.30
2023-01-18T15:17:45.607Z,9.70
2023-01-18T15:36:24.257Z,6.20
2023-01-18T15:55:02.512Z,7.00
2023-01-18T16:32:18.208Z,9.30
2023-01-18T16:50:55.925Z,12.20
2023-01-18T17:09:47.804Z,7.40
2023-01-18T17:28:12.224Z,13.30
2023-01-18T17:46:49.607Z,11.20
2023-01-18T18:05:26.278Z,12.20
2023-01-18T18:24:04.847Z,12.10
2023-01-18T18:42:45.243Z,14.30
2023-01-18T19:01:21.557Z,16.10
2023-01-18T19:20:01.051Z,15.60
2023-01-18T19:38:45.203Z,15.20
2023-01-18T19:57:16.986Z,16.90
2023-01-18T20:15:57.078Z,26.20
2023-01-18T20:34:33.168Z,18.00
2023-01-18T20:53:12.000Z,18.30
2023-01-18T21:11:53.464Z,13.40
2023-01-18T21:30:29.116Z,14.00
2023-01-18T21:49:08.285Z,14.60
2023-01-18T22:07:48.004Z,11.20
2023-01-18T22:26:24.792Z,12.00
2023-01-18T22:45:03.459Z,9.60
2023-01-18T23:03:42.853Z,12.70
2023-01-18T23:22:23.417Z,12.90
2023-01-18T23:40:59.759Z,7.50
